This is the latest recevied weather packets stored in our database for station/object KK7ISX. If no packets are shown the sender has not sent any weather packets the latest 10 day(s).
| Time | Temp. | Humidity | Pressure | Rain* | Wind** | Luminosity | Snow |
|---|---|---|---|---|---|---|---|
| 1777793106 | 11.67° C | 67% | 1014.1 hPa | 0 mm | - | 0 W/m² | - |
| 1777792803 | 11.67° C | 68% | 1014.1 hPa | 0 mm | - | 0 W/m² | - |
| 1777792500 | 11.67° C | 66% | 1014.1 hPa | 0 mm | - | 0 W/m² | - |
| 1777792196 | 12.22° C | 66% | 1014.2 hPa | 0 mm | - | 0 W/m² | - |
| 1777791893 | 12.22° C | 67% | 1014.1 hPa | 0 mm | - | 0 W/m² | - |
| 1777791591 | 12.22° C | 66% | 1014.1 hPa | 0 mm | - | 0 W/m² | - |
| 1777791289 | 12.78° C | 66% | 1013.9 hPa | 0 mm | - | 0 W/m² | - |
| 1777790986 | 12.78° C | 65% | 1014.1 hPa | 0 mm | - | 0 W/m² | - |
| 1777790381 | 13.33° C | 62% | 1014.1 hPa | 0 mm | - | 0 W/m² | - |
| 1777790078 | 13.33° C | 61% | 1013.9 hPa | 0 mm | - | 0 W/m² | - |
| 1777789776 | 13.89° C | 60% | 1014.1 hPa | 0 mm | - | 0 W/m² | - |
| 1777789474 | 13.89° C | 61% | 1013.8 hPa | 0 mm | - | 0 W/m² | - |
| 1777789172 | 13.89° C | 61% | 1013.8 hPa | 0 mm | - | 0 W/m² | - |
| 1777788869 | 13.89° C | 60% | 1013.7 hPa | 0 mm | - | 0 W/m² | - |
| 1777788565 | 14.44° C | 58% | 1013.9 hPa | 0 mm | - | 0 W/m² | - |
| 1777788264 | 14.44° C | 60% | 1013.7 hPa | 0 mm | - | 0 W/m² | - |
| 1777787960 | 14.44° C | 59% | 1013.8 hPa | 0 mm | - | 0 W/m² | - |
| 1777787655 | 15° C | 59% | 1013.8 hPa | 0 mm | - | 0 W/m² | - |
| 1777787352 | 15.56° C | 54% | 1013.7 hPa | 0 mm | - | 0 W/m² | - |
| 1777787048 | 15.56° C | 55% | 1013.6 hPa | 0 mm | - | 0 W/m² | - |
| 1777786746 | 15.56° C | 55% | 1013.5 hPa | 0 mm | - | 0 W/m² | - |
| 1777786443 | 16.11° C | 54% | 1013.5 hPa | 0 mm | - | 0 W/m² | - |
| 1777786139 | 15.56° C | 55% | 1013.6 hPa | 0 mm | - | 0 W/m² | - |
| 1777785837 | 15.56° C | 55% | 1013.6 hPa | 0 mm | - | 0 W/m² | - |
| 1777785533 | 16.11° C | 54% | 1013.5 hPa | 0 mm | - | 0 W/m² | - |
* Rain latest hour (hover to see other rain measurements)
** Current wind speed in m/s (hover to see current wind gust speed)